Terminal Aerodrome Forecast
Issued by NWS San Angelo, TX

Home | Current Version | Previous Version | Text Only | Print | Product List | Glossary On
Versions: 1 2 3 4 5 6 7 8 9 10 11 12 13 14 15 16 17
000
FTUS44 KSJT 201737
TAFSJT
TAF
KSJT 201737Z 2018/2118 15016G22KT P6SM OVC040
     FM202000 15020G30KT P6SM OVC040
     FM210400 13014G22KT P6SM VCSH OVC030
     FM210600 15011KT P6SM -SHRA OVC025
     FM210900 14007KT P6SM VCSH OVC015=

USA.gov is the U.S. government's official web portal to all federal, state and local government web resources and services.